Time;durP1;ratioP1;P1;durP2;ratioP2;P2;SDS_P1;SDS_P2;PMS_P1;PMS_P2;Temp;Humidity;BMP_temperature;BMP_pressure;BME280_temperature;BME280_humidity;BME280_pressure;Samples;Min_cycle;Max_cycle;Signal;HPM_P1;HPM_P2
2022/12/24 00:00:15;;;;;;;2.57;1.63;;;;;;;;;;4963089;28;20275;-71
2022/12/24 00:02:43;;;;;;;2.67;1.30;;;;;;;;;;4952884;28;20253;-70
2022/12/24 00:05:10;;;;;;;2.13;1.30;;;;;;;;;;4966991;28;20208;-70
2022/12/24 00:07:38;;;;;;;4.17;1.40;;;;;;;;;;4946967;28;20227;-70
2022/12/24 00:10:05;;;;;;;2.20;1.23;;;;;;;;;;4935151;28;20250;-70
2022/12/24 00:12:33;;;;;;;3.20;1.27;;;;;;;;;;4940885;28;20222;-71
2022/12/24 00:15:00;;;;;;;3.90;1.50;;;;;;;;;;4936356;28;20612;-70
2022/12/24 00:17:28;;;;;;;4.40;1.63;;;;;;;;;;4927826;28;22815;-70
2022/12/24 00:19:55;;;;;;;2.30;1.50;;;;;;;;;;4930410;28;20339;-70
2022/12/24 00:22:22;;;;;;;2.90;1.37;;;;;;;;;;4923037;28;20211;-70
2022/12/24 00:24:49;;;;;;;5.13;1.90;;;;;;;;;;4935491;28;20215;-70
2022/12/24 00:27:17;;;;;;;2.73;1.30;;;;;;;;;;4921352;28;20231;-70
2022/12/24 00:29:44;;;;;;;3.50;1.50;;;;;;;;;;4931380;28;20213;-70
2022/12/24 00:32:11;;;;;;;4.13;1.80;;;;;;;;;;4927474;28;20372;-70
2022/12/24 00:34:39;;;;;;;2.47;1.50;;;;;;;;;;4934343;28;20215;-70
2022/12/24 00:37:07;;;;;;;3.43;1.40;;;;;;;;;;4905872;28;20270;-70
2022/12/24 00:39:34;;;;;;;5.60;1.83;;;;;;;;;;4902081;28;20259;-70
2022/12/24 00:42:01;;;;;;;2.87;1.40;;;;;;;;;;4903938;28;20586;-70
2022/12/24 00:44:29;;;;;;;3.07;1.50;;;;;;;;;;4938332;28;20806;-74
2022/12/24 00:46:56;;;;;;;3.00;1.60;;;;;;;;;;4926078;28;20275;-71
2022/12/24 00:49:23;;;;;;;3.90;1.43;;;;;;;;;;4901174;28;20303;-70
2022/12/24 00:51:51;;;;;;;6.10;1.87;;;;;;;;;;4936375;28;20239;-70
2022/12/24 00:54:18;;;;;;;4.67;1.60;;;;;;;;;;4918234;28;20216;-71
2022/12/24 00:56:45;;;;;;;6.50;1.60;;;;;;;;;;4918340;28;20232;-69
2022/12/24 00:59:13;;;;;;;3.17;1.60;;;;;;;;;;4943216;28;20211;-69
2022/12/24 01:01:40;;;;;;;2.57;1.47;;;;;;;;;;4967374;28;20243;-69
2022/12/24 01:06:53;;;;;;;4.77;1.57;;;;;;;;;;4960330;28;20242;-70
2022/12/24 01:09:20;;;;;;;2.30;1.30;;;;;;;;;;4923756;28;20204;-70
2022/12/24 01:11:48;;;;;;;2.40;1.50;;;;;;;;;;4937211;28;20236;-69
2022/12/24 01:14:15;;;;;;;3.93;1.50;;;;;;;;;;4931786;28;20259;-71
2022/12/24 01:16:42;;;;;;;3.33;1.70;;;;;;;;;;4926165;28;20342;-70
2022/12/24 01:19:10;;;;;;;3.73;1.60;;;;;;;;;;4920669;28;20204;-70
2022/12/24 01:21:37;;;;;;;3.27;1.40;;;;;;;;;;4935019;28;20314;-70
2022/12/24 01:24:04;;;;;;;3.00;1.90;;;;;;;;;;4918437;28;21204;-69
2022/12/24 01:26:31;;;;;;;1.80;1.40;;;;;;;;;;4919688;28;20610;-75
2022/12/24 01:28:59;;;;;;;4.10;1.40;;;;;;;;;;4914798;28;20208;-74
2022/12/24 01:31:26;;;;;;;4.37;1.50;;;;;;;;;;4924191;28;20318;-74
2022/12/24 01:33:53;;;;;;;6.50;1.70;;;;;;;;;;4931266;28;20209;-75
2022/12/24 01:36:21;;;;;;;4.07;1.63;;;;;;;;;;4929278;28;20235;-75
2022/12/24 01:38:48;;;;;;;2.47;1.50;;;;;;;;;;4928025;28;20223;-75
2022/12/24 01:44:17;;;;;;;4.33;1.40;;;;;;;;;;4929219;28;20625;-75
2022/12/24 01:46:45;;;;;;;4.10;2.17;;;;;;;;;;4926474;28;24213;-75
2022/12/24 01:49:13;;;;;;;5.13;1.57;;;;;;;;;;4930963;28;20209;-75
2022/12/24 01:51:45;;;;;;;1.97;1.30;;;;;;;;;;4922133;28;20246;-75
2022/12/24 01:54:19;;;;;;;3.67;1.80;;;;;;;;;;4925107;28;20213;-74
2022/12/24 01:56:48;;;;;;;5.20;1.47;;;;;;;;;;4935478;28;20216;-74
2022/12/24 01:59:17;;;;;;;6.07;1.77;;;;;;;;;;4954989;28;20209;-74
2022/12/24 02:01:46;;;;;;;5.47;2.23;;;;;;;;;;4975985;28;20224;-73
2022/12/24 02:04:25;;;;;;;4.87;1.97;;;;;;;;;;4959492;28;20209;-75
2022/12/24 02:06:52;;;;;;;2.27;1.43;;;;;;;;;;4976053;28;20215;-74
2022/12/24 02:09:19;;;;;;;6.60;1.87;;;;;;;;;;4939488;28;20749;-73
2022/12/24 02:11:47;;;;;;;6.83;2.50;;;;;;;;;;4937741;28;20251;-75
2022/12/24 02:14:15;;;;;;;3.47;1.33;;;;;;;;;;4942791;28;20216;-74
2022/12/24 02:16:52;;;;;;;6.07;1.83;;;;;;;;;;4942444;28;21532;-74
2022/12/24 02:19:34;;;;;;;4.17;1.70;;;;;;;;;;4930676;28;20351;-76
2022/12/24 02:22:07;;;;;;;4.33;2.00;;;;;;;;;;4916590;28;20298;-74
2022/12/24 02:24:36;;;;;;;5.23;1.60;;;;;;;;;;4933093;28;20619;-75
2022/12/24 02:27:10;;;;;;;4.67;1.37;;;;;;;;;;4943592;28;20208;-74
2022/12/24 02:29:43;;;;;;;3.77;1.77;;;;;;;;;;4931599;28;20212;-74
2022/12/24 02:32:13;;;;;;;4.57;1.60;;;;;;;;;;4951895;28;20320;-75
2022/12/24 02:34:44;;;;;;;1.97;1.30;;;;;;;;;;4937431;28;20235;-75
2022/12/24 02:37:17;;;;;;;4.30;1.50;;;;;;;;;;4917857;28;20227;-76
2022/12/24 02:39:44;;;;;;;4.93;1.60;;;;;;;;;;4929336;28;20575;-74
2022/12/24 02:42:14;;;;;;;5.73;1.73;;;;;;;;;;4930813;28;20205;-74
2022/12/24 02:44:51;;;;;;;3.33;1.77;;;;;;;;;;4935946;28;20208;-75
2022/12/24 02:47:21;;;;;;;5.73;1.70;;;;;;;;;;4927434;28;20212;-74
2022/12/24 02:49:48;;;;;;;4.07;1.77;;;;;;;;;;4938277;28;20282;-74
2022/12/24 02:52:32;;;;;;;2.23;1.40;;;;;;;;;;4945007;28;20215;-75
2022/12/24 02:55:02;;;;;;;2.50;1.47;;;;;;;;;;4946380;28;20701;-76
2022/12/24 02:57:42;;;;;;;3.87;1.80;;;;;;;;;;4929937;28;20246;-75
2022/12/24 03:00:14;;;;;;;3.63;1.80;;;;;;;;;;4942220;28;20258;-74
2022/12/24 03:02:47;;;;;;;3.27;1.67;;;;;;;;;;4942756;28;20675;-74
2022/12/24 03:05:37;;;;;;;4.10;1.73;;;;;;;;;;4940638;28;20220;-74
2022/12/24 03:08:18;;;;;;;5.43;1.70;;;;;;;;;;4930650;28;20212;-77
2022/12/24 03:10:54;;;;;;;5.03;1.83;;;;;;;;;;4950098;28;20242;-74
2022/12/24 03:13:22;;;;;;;4.57;2.13;;;;;;;;;;4960805;28;20848;-73
2022/12/24 03:15:51;;;;;;;2.30;1.60;;;;;;;;;;4959852;28;20209;-72
2022/12/24 03:18:20;;;;;;;5.73;1.70;;;;;;;;;;4954235;28;20228;-73
2022/12/24 03:20:54;;;;;;;4.07;1.50;;;;;;;;;;4973596;28;20224;-74
2022/12/24 03:23:21;;;;;;;4.73;1.70;;;;;;;;;;4935569;28;20715;-72
2022/12/24 03:25:48;;;;;;;4.97;2.13;;;;;;;;;;4921519;28;20205;-74
2022/12/24 03:28:17;;;;;;;3.80;2.00;;;;;;;;;;4911489;28;20209;-74
2022/12/24 03:30:47;;;;;;;4.43;1.60;;;;;;;;;;4919039;28;20286;-76
2022/12/24 03:33:16;;;;;;;4.73;1.57;;;;;;;;;;4929725;28;20223;-76
2022/12/24 03:35:43;;;;;;;6.37;1.90;;;;;;;;;;4927003;28;20205;-76
2022/12/24 03:38:10;;;;;;;2.90;1.80;;;;;;;;;;4954402;28;20224;-75
2022/12/24 03:40:39;;;;;;;3.53;2.10;;;;;;;;;;4963865;28;20956;-75
2022/12/24 03:43:06;;;;;;;5.80;1.93;;;;;;;;;;4958160;28;20606;-75
2022/12/24 03:45:33;;;;;;;4.03;1.83;;;;;;;;;;4965120;28;20748;-76
2022/12/24 03:48:01;;;;;;;2.03;1.67;;;;;;;;;;4949018;28;35057;-76
2022/12/24 03:50:28;;;;;;;3.03;1.93;;;;;;;;;;4934098;28;20378;-74
2022/12/24 03:52:55;;;;;;;5.03;1.83;;;;;;;;;;4926279;28;20220;-76
2022/12/24 03:55:23;;;;;;;5.17;1.83;;;;;;;;;;4922635;28;20299;-75
2022/12/24 03:57:50;;;;;;;5.43;1.70;;;;;;;;;;4924705;28;20240;-76
2022/12/24 04:00:18;;;;;;;4.87;1.63;;;;;;;;;;4926964;28;20725;-76
2022/12/24 04:02:45;;;;;;;3.83;1.80;;;;;;;;;;4917610;28;20213;-76
2022/12/24 04:05:17;;;;;;;3.07;1.70;;;;;;;;;;4927054;28;20204;-76
2022/12/24 04:07:45;;;;;;;4.17;1.67;;;;;;;;;;4929626;28;20205;-76
2022/12/24 04:10:13;;;;;;;3.43;1.53;;;;;;;;;;4924726;28;20871;-75
2022/12/24 04:12:40;;;;;;;3.57;1.80;;;;;;;;;;4924671;28;20316;-75
2022/12/24 04:15:08;;;;;;;5.67;2.27;;;;;;;;;;4932927;28;20314;-75
2022/12/24 04:17:36;;;;;;;4.57;1.80;;;;;;;;;;4925761;28;20528;-74
2022/12/24 04:20:03;;;;;;;4.93;1.70;;;;;;;;;;4917811;28;20223;-74
2022/12/24 04:22:31;;;;;;;4.67;1.70;;;;;;;;;;4904834;28;20212;-74
2022/12/24 04:24:58;;;;;;;4.63;1.80;;;;;;;;;;4922687;28;20205;-76
2022/12/24 04:27:26;;;;;;;2.90;1.80;;;;;;;;;;4916972;28;20227;-75
2022/12/24 04:29:57;;;;;;;3.00;1.60;;;;;;;;;;4919447;28;20212;-75
2022/12/24 04:32:28;;;;;;;2.83;1.70;;;;;;;;;;4928541;28;20865;-77
2022/12/24 04:34:55;;;;;;;4.57;1.70;;;;;;;;;;4919177;28;20347;-76
2022/12/24 04:37:23;;;;;;;2.07;1.30;;;;;;;;;;4930961;28;20608;-75
2022/12/24 04:39:50;;;;;;;3.43;1.67;;;;;;;;;;4909389;28;20209;-74
2022/12/24 04:42:17;;;;;;;3.03;1.70;;;;;;;;;;4927442;28;20212;-75
2022/12/24 04:44:45;;;;;;;5.30;2.13;;;;;;;;;;4933035;28;20209;-75
2022/12/24 04:47:12;;;;;;;3.47;1.93;;;;;;;;;;4926859;28;22263;-76
2022/12/24 04:49:39;;;;;;;4.03;1.90;;;;;;;;;;4931378;28;20667;-75
2022/12/24 04:52:07;;;;;;;7.47;2.10;;;;;;;;;;4926407;28;20686;-76
2022/12/24 04:54:34;;;;;;;2.30;1.53;;;;;;;;;;4917108;28;20212;-75
2022/12/24 04:57:01;;;;;;;5.77;1.73;;;;;;;;;;4917157;28;20243;-75
2022/12/24 04:59:29;;;;;;;5.17;1.70;;;;;;;;;;4923215;28;20712;-75
2022/12/24 05:01:56;;;;;;;3.00;1.73;;;;;;;;;;4924977;28;20838;-76
2022/12/24 05:04:23;;;;;;;5.00;2.00;;;;;;;;;;4903715;28;20209;-76
2022/12/24 05:06:51;;;;;;;4.47;2.00;;;;;;;;;;4924129;28;20312;-75
2022/12/24 05:09:18;;;;;;;6.20;2.50;;;;;;;;;;4923586;28;20258;-75
2022/12/24 05:11:46;;;;;;;2.80;1.60;;;;;;;;;;4937324;28;20739;-76
2022/12/24 05:14:13;;;;;;;3.00;1.60;;;;;;;;;;4961000;28;20271;-74
2022/12/24 05:16:40;;;;;;;3.93;1.73;;;;;;;;;;4976899;28;20246;-75
2022/12/24 05:19:08;;;;;;;4.60;2.10;;;;;;;;;;4972197;28;20225;-74
2022/12/24 05:21:35;;;;;;;5.70;2.00;;;;;;;;;;4973805;28;20232;-75
2022/12/24 05:26:52;;;;;;;3.63;1.60;;;;;;;;;;4959173;28;20211;-74
2022/12/24 05:29:20;;;;;;;5.53;1.77;;;;;;;;;;4935090;28;20207;-75
2022/12/24 05:31:47;;;;;;;4.50;1.60;;;;;;;;;;4931707;28;20318;-74
2022/12/24 05:34:15;;;;;;;4.47;1.97;;;;;;;;;;4942943;28;20716;-75
2022/12/24 05:36:43;;;;;;;20.63;13.73;;;;;;;;;;4937529;28;20294;-75
2022/12/24 05:39:15;;;;;;;15.43;10.63;;;;;;;;;;4975917;28;20211;-74
2022/12/24 05:41:43;;;;;;;3.60;2.00;;;;;;;;;;4970909;28;20223;-74
2022/12/24 05:44:10;;;;;;;3.80;1.40;;;;;;;;;;4955266;28;20201;-74
2022/12/24 05:46:37;;;;;;;33.83;25.10;;;;;;;;;;4963567;28;20278;-75
2022/12/24 05:49:05;;;;;;;9.97;6.63;;;;;;;;;;4940799;28;20207;-74
2022/12/24 05:51:32;;;;;;;5.27;2.30;;;;;;;;;;4911661;28;20711;-76
2022/12/24 05:53:59;;;;;;;3.63;1.80;;;;;;;;;;4935538;28;21156;-74
2022/12/24 05:56:26;;;;;;;3.17;1.90;;;;;;;;;;4932889;28;20212;-76
2022/12/24 05:58:54;;;;;;;2.73;1.53;;;;;;;;;;4922688;28;21030;-75
2022/12/24 06:01:22;;;;;;;3.93;1.87;;;;;;;;;;4937872;28;20239;-75
2022/12/24 06:03:49;;;;;;;3.83;2.30;;;;;;;;;;4937629;28;20211;-76
2022/12/24 06:06:19;;;;;;;4.97;2.20;;;;;;;;;;4929706;28;20682;-75
2022/12/24 06:08:47;;;;;;;5.40;2.03;;;;;;;;;;4923315;28;20264;-75
2022/12/24 06:11:16;;;;;;;4.47;2.10;;;;;;;;;;4927297;28;20243;-75
2022/12/24 06:13:43;;;;;;;3.90;2.30;;;;;;;;;;4934827;28;20906;-75
2022/12/24 06:16:15;;;;;;;8.30;2.20;;;;;;;;;;4942303;28;20216;-75
2022/12/24 06:18:43;;;;;;;6.53;2.10;;;;;;;;;;4938335;28;20255;-73
2022/12/24 06:21:11;;;;;;;4.50;1.70;;;;;;;;;;4932904;28;20339;-74
2022/12/24 06:23:39;;;;;;;5.93;1.80;;;;;;;;;;4931144;28;20347;-74
2022/12/24 06:26:07;;;;;;;3.67;1.70;;;;;;;;;;4936776;28;20263;-75
2022/12/24 06:28:36;;;;;;;5.10;2.00;;;;;;;;;;4926559;28;20220;-75
2022/12/24 06:31:04;;;;;;;6.37;2.50;;;;;;;;;;4938943;28;20318;-74
2022/12/24 06:33:33;;;;;;;8.73;2.30;;;;;;;;;;4931127;28;20320;-75
2022/12/24 06:36:00;;;;;;;5.27;2.20;;;;;;;;;;4927604;28;20212;-76
2022/12/24 06:38:30;;;;;;;6.27;2.17;;;;;;;;;;4938509;28;20224;-72
2022/12/24 06:40:57;;;;;;;7.47;2.17;;;;;;;;;;4932959;28;20224;-73
2022/12/24 06:43:24;;;;;;;7.40;2.03;;;;;;;;;;4932583;28;20697;-71
2022/12/24 06:45:52;;;;;;;7.17;2.20;;;;;;;;;;4932532;28;20631;-72
2022/12/24 06:48:19;;;;;;;6.93;2.63;;;;;;;;;;4916182;28;20224;-71
2022/12/24 06:50:47;;;;;;;6.33;1.80;;;;;;;;;;4922740;28;22099;-71
2022/12/24 06:53:14;;;;;;;5.73;2.00;;;;;;;;;;4941476;28;20245;-72
2022/12/24 06:55:41;;;;;;;9.73;2.30;;;;;;;;;;4938493;28;20215;-71
2022/12/24 06:58:09;;;;;;;9.47;1.80;;;;;;;;;;4930824;28;20338;-72
2022/12/24 07:00:36;;;;;;;6.10;2.10;;;;;;;;;;4931851;28;20230;-72
2022/12/24 07:03:03;;;;;;;5.67;1.70;;;;;;;;;;4931664;28;20216;-72
2022/12/24 07:05:30;;;;;;;10.47;2.67;;;;;;;;;;4920236;28;20216;-71
2022/12/24 07:07:58;;;;;;;6.20;2.10;;;;;;;;;;4932902;28;20205;-72
2022/12/24 07:10:25;;;;;;;7.33;2.10;;;;;;;;;;4927452;28;20235;-71
2022/12/24 07:12:52;;;;;;;5.47;2.50;;;;;;;;;;4952041;28;20919;-70
2022/12/24 07:15:19;;;;;;;18.67;8.60;;;;;;;;;;4973818;28;20204;-71
2022/12/24 07:17:47;;;;;;;13.00;5.87;;;;;;;;;;4976892;28;20234;-71
2022/12/24 07:20:14;;;;;;;13.17;4.07;;;;;;;;;;4970629;28;20216;-71
2022/12/24 07:22:42;;;;;;;11.07;3.20;;;;;;;;;;4967035;28;20208;-73
2022/12/24 07:25:10;;;;;;;11.30;3.97;;;;;;;;;;4920143;28;20201;-70
2022/12/24 07:27:37;;;;;;;8.07;2.83;;;;;;;;;;4929987;28;20216;-71
2022/12/24 07:30:05;;;;;;;6.87;2.03;;;;;;;;;;4911128;28;20630;-70
2022/12/24 07:32:33;;;;;;;8.60;1.93;;;;;;;;;;4921060;28;20573;-71
2022/12/24 07:35:00;;;;;;;7.47;2.10;;;;;;;;;;4930899;28;20316;-71
2022/12/24 07:37:27;;;;;;;4.23;1.80;;;;;;;;;;4938104;28;20300;-71
2022/12/24 07:39:55;;;;;;;9.63;2.20;;;;;;;;;;4960323;28;20332;-71
2022/12/24 07:42:22;;;;;;;9.93;2.50;;;;;;;;;;4944226;28;20720;-70
2022/12/24 07:44:50;;;;;;;7.60;2.30;;;;;;;;;;4933761;28;21072;-70
2022/12/24 07:47:17;;;;;;;6.27;2.40;;;;;;;;;;4917955;28;20209;-71
2022/12/24 07:49:44;;;;;;;5.53;2.73;;;;;;;;;;4920734;28;20247;-70
2022/12/24 07:52:12;;;;;;;7.87;2.43;;;;;;;;;;4927731;28;20262;-71
2022/12/24 07:54:39;;;;;;;8.57;2.43;;;;;;;;;;4914480;28;20640;-71
2022/12/24 07:57:06;;;;;;;6.37;2.40;;;;;;;;;;4916517;28;20976;-72
2022/12/24 07:59:34;;;;;;;17.97;12.10;;;;;;;;;;4935140;28;22682;-70
2022/12/24 08:02:01;;;;;;;9.83;5.90;;;;;;;;;;4935868;28;20768;-71
2022/12/24 08:04:31;;;;;;;15.47;10.40;;;;;;;;;;4945099;28;20226;-71
2022/12/24 08:06:58;;;;;;;17.70;8.77;;;;;;;;;;4940096;28;20205;-71
2022/12/24 08:09:25;;;;;;;7.53;3.13;;;;;;;;;;4925937;28;20208;-71
2022/12/24 08:11:53;;;;;;;10.73;4.57;;;;;;;;;;4933788;28;20610;-71
2022/12/24 08:14:20;;;;;;;8.40;3.30;;;;;;;;;;4922681;28;20676;-71
2022/12/24 08:16:47;;;;;;;9.97;4.33;;;;;;;;;;4921120;28;22446;-71
2022/12/24 08:19:15;;;;;;;8.63;2.60;;;;;;;;;;4929940;28;21498;-71
2022/12/24 08:21:42;;;;;;;4.30;2.50;;;;;;;;;;4954115;28;20216;-71
2022/12/24 08:24:10;;;;;;;11.33;2.60;;;;;;;;;;4954307;28;20204;-70
2022/12/24 08:26:37;;;;;;;8.40;3.27;;;;;;;;;;4953242;28;20287;-71
2022/12/24 08:29:04;;;;;;;5.57;2.90;;;;;;;;;;4968399;28;20216;-70
2022/12/24 08:31:35;;;;;;;8.13;3.47;;;;;;;;;;4951021;28;20240;-71
2022/12/24 08:34:03;;;;;;;9.07;3.83;;;;;;;;;;4961168;28;20208;-70
2022/12/24 08:36:30;;;;;;;15.93;5.53;;;;;;;;;;4952825;28;20351;-70
2022/12/24 08:38:58;;;;;;;19.97;8.87;;;;;;;;;;4949914;28;20286;-71
2022/12/24 08:41:25;;;;;;;7.70;3.80;;;;;;;;;;4955211;28;20274;-71
2022/12/24 08:43:52;;;;;;;13.90;5.60;;;;;;;;;;4958207;28;20216;-71
2022/12/24 08:46:20;;;;;;;11.40;5.87;;;;;;;;;;4960326;28;20581;-71
2022/12/24 08:48:47;;;;;;;8.97;3.90;;;;;;;;;;4933422;28;20262;-72
2022/12/24 08:51:14;;;;;;;6.37;2.93;;;;;;;;;;4941457;28;20602;-71
2022/12/24 08:53:41;;;;;;;6.33;2.87;;;;;;;;;;4950264;28;20663;-70
2022/12/24 08:56:09;;;;;;;9.47;3.00;;;;;;;;;;4942425;28;20212;-71
2022/12/24 08:58:37;;;;;;;9.07;2.93;;;;;;;;;;4931709;28;20227;-71
2022/12/24 09:01:15;;;;;;;7.37;3.27;;;;;;;;;;4955397;28;20219;-70
2022/12/24 09:03:42;;;;;;;8.27;3.27;;;;;;;;;;4953474;28;20209;-70
2022/12/24 09:06:10;;;;;;;16.20;5.90;;;;;;;;;;4957138;28;20319;-71
2022/12/24 09:08:37;;;;;;;22.93;10.27;;;;;;;;;;4946745;28;20342;-71
2022/12/24 09:11:09;;;;;;;14.83;8.30;;;;;;;;;;4946023;28;20228;-71
2022/12/24 09:13:36;;;;;;;14.30;7.43;;;;;;;;;;4939923;28;20204;-73
2022/12/24 09:16:04;;;;;;;11.13;6.40;;;;;;;;;;4955199;28;21941;-70
2022/12/24 09:18:31;;;;;;;13.60;7.10;;;;;;;;;;4952290;28;20290;-71
2022/12/24 09:21:03;;;;;;;15.97;7.63;;;;;;;;;;4966916;28;20355;-70
2022/12/24 09:23:30;;;;;;;13.73;6.47;;;;;;;;;;4954697;28;20309;-71
2022/12/24 09:25:57;;;;;;;7.70;4.90;;;;;;;;;;4945286;28;20204;-71
2022/12/24 09:28:24;;;;;;;8.67;4.67;;;;;;;;;;4940704;28;20990;-71
2022/12/24 09:30:59;;;;;;;8.23;3.50;;;;;;;;;;4948774;28;20624;-72
2022/12/24 09:33:27;;;;;;;10.27;5.30;;;;;;;;;;4943557;28;20208;-71
2022/12/24 09:35:55;;;;;;;9.23;5.23;;;;;;;;;;4948968;28;20279;-72
2022/12/24 09:38:22;;;;;;;9.17;4.27;;;;;;;;;;4939153;28;20225;-72
2022/12/24 09:40:50;;;;;;;11.47;4.73;;;;;;;;;;4939923;28;20543;-72
2022/12/24 09:43:27;;;;;;;6.87;3.13;;;;;;;;;;4953029;28;20207;-72
2022/12/24 09:45:57;;;;;;;11.70;3.37;;;;;;;;;;4949025;28;20207;-72
2022/12/24 09:48:28;;;;;;;10.73;3.53;;;;;;;;;;4951854;28;20223;-72
2022/12/24 09:50:59;;;;;;;9.20;4.20;;;;;;;;;;4949390;28;20251;-72
2022/12/24 09:53:28;;;;;;;7.43;4.27;;;;;;;;;;4947395;28;20216;-72
2022/12/24 09:55:57;;;;;;;10.23;4.37;;;;;;;;;;4952937;28;20208;-72
2022/12/24 09:58:33;;;;;;;6.67;3.93;;;;;;;;;;4962411;28;20316;-71
2022/12/24 10:01:00;;;;;;;10.07;3.27;;;;;;;;;;4944525;28;20346;-71
2022/12/24 10:03:28;;;;;;;8.60;2.47;;;;;;;;;;4937505;28;20208;-72
2022/12/24 10:06:16;;;;;;;7.30;2.57;;;;;;;;;;4932368;28;20208;-71
2022/12/24 10:08:51;;;;;;;8.20;2.57;;;;;;;;;;4929398;28;20694;-72
2022/12/24 10:11:31;;;;;;;5.63;2.37;;;;;;;;;;4945826;28;20247;-72
2022/12/24 10:14:02;;;;;;;4.27;2.10;;;;;;;;;;4951959;28;20212;-71
2022/12/24 10:16:36;;;;;;;5.97;2.40;;;;;;;;;;4916738;28;20222;-71
2022/12/24 10:19:22;;;;;;;9.20;2.60;;;;;;;;;;4930052;28;20247;-71
2022/12/24 10:21:49;;;;;;;5.80;2.27;;;;;;;;;;4939918;28;20224;-71
2022/12/24 10:24:20;;;;;;;6.30;2.00;;;;;;;;;;4930957;28;21624;-71
2022/12/24 10:26:47;;;;;;;7.33;2.10;;;;;;;;;;4929869;28;20351;-71
2022/12/24 10:29:20;;;;;;;10.50;3.00;;;;;;;;;;4908973;28;20216;-71
2022/12/24 10:31:53;;;;;;;6.23;2.47;;;;;;;;;;4933385;28;20324;-71
2022/12/24 10:34:22;;;;;;;6.77;2.20;;;;;;;;;;4934347;28;20209;-71
2022/12/24 10:36:50;;;;;;;5.50;2.67;;;;;;;;;;4929125;28;20212;-71
2022/12/24 10:39:19;;;;;;;8.32;2.80;;;;;;;;;;4929375;28;20610;-72
2022/12/24 10:41:51;;;;;;;7.23;2.50;;;;;;;;;;4931749;28;20311;-72
2022/12/24 10:44:20;;;;;;;8.23;2.33;;;;;;;;;;4927747;28;20212;-72
2022/12/24 10:46:48;;;;;;;8.17;2.33;;;;;;;;;;4941793;28;20213;-71
2022/12/24 10:49:16;;;;;;;8.43;2.33;;;;;;;;;;4948946;28;20644;-72
2022/12/24 10:51:47;;;;;;;7.90;2.47;;;;;;;;;;4943624;28;21907;-72
2022/12/24 10:54:20;;;;;;;9.63;2.37;;;;;;;;;;4951807;28;20208;-71
2022/12/24 10:56:58;;;;;;;8.40;2.77;;;;;;;;;;4951565;28;20382;-74
2022/12/24 10:59:27;;;;;;;5.40;2.70;;;;;;;;;;4952513;28;20269;-71
2022/12/24 11:01:55;;;;;;;12.07;3.97;;;;;;;;;;4954775;28;20327;-71
2022/12/24 11:04:25;;;;;;;12.33;4.27;;;;;;;;;;4938388;28;20201;-71
2022/12/24 11:06:52;;;;;;;9.27;2.80;;;;;;;;;;4950905;28;20598;-71
2022/12/24 11:09:28;;;;;;;6.10;2.83;;;;;;;;;;4955415;28;20538;-72
2022/12/24 11:11:56;;;;;;;8.10;2.47;;;;;;;;;;4931549;28;20250;-72
2022/12/24 11:14:23;;;;;;;8.27;2.50;;;;;;;;;;4931664;28;20305;-71
2022/12/24 11:16:52;;;;;;;6.23;2.40;;;;;;;;;;4927636;28;20847;-71
2022/12/24 11:19:24;;;;;;;8.03;3.23;;;;;;;;;;4944322;28;21146;-76
2022/12/24 11:21:58;;;;;;;7.57;3.97;;;;;;;;;;4929721;28;20232;-76
2022/12/24 11:24:27;;;;;;;10.23;6.33;;;;;;;;;;4947427;28;20206;-76
2022/12/24 11:26:54;;;;;;;10.80;5.23;;;;;;;;;;4952803;28;20219;-76
2022/12/24 11:29:26;;;;;;;10.73;5.20;;;;;;;;;;4933399;28;20235;-76
2022/12/24 11:32:10;;;;;;;7.70;4.00;;;;;;;;;;4922454;28;20233;-75
2022/12/24 11:34:42;;;;;;;8.30;2.80;;;;;;;;;;4947515;28;20299;-76
2022/12/24 11:37:15;;;;;;;10.07;3.77;;;;;;;;;;4948274;28;20212;-76
2022/12/24 11:40:01;;;;;;;12.17;4.43;;;;;;;;;;4938509;28;20560;-76
2022/12/24 11:42:28;;;;;;;11.13;5.10;;;;;;;;;;4945841;28;20383;-77
2022/12/24 11:44:56;;;;;;;12.37;3.67;;;;;;;;;;4934331;28;20208;-77
2022/12/24 11:47:33;;;;;;;10.57;3.80;;;;;;;;;;4930353;28;20331;-77
2022/12/24 11:50:21;;;;;;;11.40;4.77;;;;;;;;;;4934914;28;20250;-79
2022/12/24 11:52:54;;;;;;;7.70;4.27;;;;;;;;;;4944879;28;20216;-77
2022/12/24 11:55:27;;;;;;;10.10;4.33;;;;;;;;;;4947934;28;20208;-77
2022/12/24 11:58:02;;;;;;;11.10;3.10;;;;;;;;;;4947581;28;20209;-76
2022/12/24 12:00:30;;;;;;;10.07;3.13;;;;;;;;;;4946906;28;20235;-77
2022/12/24 12:02:59;;;;;;;12.07;6.13;;;;;;;;;;4948149;28;20699;-77
2022/12/24 12:05:32;;;;;;;11.80;4.27;;;;;;;;;;4943009;28;20205;-76
2022/12/24 12:08:07;;;;;;;6.73;2.90;;;;;;;;;;4944731;28;20723;-75
2022/12/24 12:10:36;;;;;;;10.47;3.40;;;;;;;;;;4958086;28;20304;-77
2022/12/24 12:13:05;;;;;;;8.30;3.40;;;;;;;;;;4945105;28;20312;-76
2022/12/24 12:15:44;;;;;;;7.70;2.63;;;;;;;;;;4921522;28;21673;-76
2022/12/24 12:18:40;;;;;;;6.10;2.00;;;;;;;;;;4937036;28;20220;-75
2022/12/24 12:21:19;;;;;;;8.47;3.90;;;;;;;;;;4934221;28;20359;-77
2022/12/24 12:23:51;;;;;;;7.77;2.80;;;;;;;;;;4918013;28;20664;-76
2022/12/24 12:26:22;;;;;;;11.20;4.03;;;;;;;;;;4950743;28;20205;-75
2022/12/24 12:29:08;;;;;;;15.37;6.17;;;;;;;;;;4952588;28;20343;-74
2022/12/24 12:31:35;;;;;;;13.63;6.07;;;;;;;;;;4957671;28;20224;-75
2022/12/24 12:34:16;;;;;;;10.10;4.60;;;;;;;;;;4936960;28;20680;-77
2022/12/24 12:36:45;;;;;;;9.87;4.23;;;;;;;;;;4957656;28;21272;-77
2022/12/24 12:39:12;;;;;;;9.33;3.33;;;;;;;;;;4959579;28;20616;-78
2022/12/24 12:42:02;;;;;;;9.97;3.67;;;;;;;;;;4948562;28;20234;-77
2022/12/24 12:44:45;;;;;;;11.37;3.97;;;;;;;;;;4959740;28;20205;-78
2022/12/24 12:47:27;;;;;;;11.83;3.30;;;;;;;;;;4967516;28;20654;-79
2022/12/24 12:50:02;;;;;;;11.87;3.90;;;;;;;;;;4938695;28;20638;-76
2022/12/24 12:52:39;;;;;;;8.67;3.43;;;;;;;;;;4954085;28;20216;-77
2022/12/24 12:55:34;;;;;;;8.27;2.67;;;;;;;;;;4956268;28;20212;-77
2022/12/24 12:58:04;;;;;;;7.63;3.00;;;;;;;;;;4957732;28;20339;-77
2022/12/24 13:00:33;;;;;;;9.40;2.73;;;;;;;;;;4951413;28;20663;-77
2022/12/24 13:03:03;;;;;;;5.30;2.17;;;;;;;;;;4963711;28;20212;-77
2022/12/24 13:05:45;;;;;;;5.17;2.40;;;;;;;;;;4968659;28;20224;-79
2022/12/24 13:08:13;;;;;;;8.20;3.07;;;;;;;;;;4938007;28;20213;-75
2022/12/24 13:10:48;;;;;;;4.97;2.00;;;;;;;;;;4960421;28;20231;-76
2022/12/24 13:13:19;;;;;;;8.63;4.27;;;;;;;;;;4955817;28;20215;-79
2022/12/24 13:15:56;;;;;;;4.80;2.27;;;;;;;;;;4954547;28;20204;-76
2022/12/24 13:18:43;;;;;;;9.10;2.53;;;;;;;;;;4963469;28;20208;-77
2022/12/24 13:21:19;;;;;;;5.47;2.40;;;;;;;;;;4964762;28;21038;-77
2022/12/24 13:23:47;;;;;;;3.80;2.27;;;;;;;;;;4958439;28;20244;-77
2022/12/24 13:26:15;;;;;;;6.60;2.70;;;;;;;;;;4947440;28;20291;-76
2022/12/24 13:28:43;;;;;;;8.00;2.40;;;;;;;;;;4949611;28;20212;-75
2022/12/24 13:31:19;;;;;;;5.83;2.37;;;;;;;;;;4946767;28;20244;-74
2022/12/24 13:33:48;;;;;;;7.23;2.60;;;;;;;;;;4960023;28;20235;-77
2022/12/24 13:36:16;;;;;;;7.27;3.03;;;;;;;;;;4968114;28;20722;-77
2022/12/24 13:38:46;;;;;;;4.47;2.70;;;;;;;;;;4967417;28;20223;-76
2022/12/24 13:41:32;;;;;;;6.17;2.30;;;;;;;;;;4964646;28;20240;-76
2022/12/24 13:44:12;;;;;;;7.77;2.53;;;;;;;;;;4954428;28;20428;-76
2022/12/24 13:46:57;;;;;;;8.47;2.57;;;;;;;;;;4946905;28;20209;-75
2022/12/24 13:49:39;;;;;;;5.27;2.10;;;;;;;;;;4959828;28;20279;-75
2022/12/24 13:52:17;;;;;;;7.53;2.70;;;;;;;;;;4970248;28;20204;-77
2022/12/24 13:54:53;;;;;;;7.33;2.40;;;;;;;;;;4963423;28;20215;-77
2022/12/24 13:57:32;;;;;;;19.57;13.00;;;;;;;;;;4961345;28;20216;-76
2022/12/24 14:00:01;;;;;;;5.73;2.40;;;;;;;;;;4938752;28;20321;-75
2022/12/24 14:02:32;;;;;;;4.53;2.30;;;;;;;;;;4937205;28;20211;-76
2022/12/24 14:05:01;;;;;;;6.83;2.10;;;;;;;;;;4967724;28;20623;-76
2022/12/24 14:07:28;;;;;;;5.27;2.60;;;;;;;;;;4964369;28;20208;-75
2022/12/24 14:09:57;;;;;;;6.63;2.83;;;;;;;;;;4964196;28;20569;-75
2022/12/24 14:12:46;;;;;;;4.60;2.10;;;;;;;;;;4952753;28;20221;-75
2022/12/24 14:15:34;;;;;;;5.57;2.73;;;;;;;;;;4958819;28;20223;-78
2022/12/24 14:18:02;;;;;;;7.60;2.53;;;;;;;;;;4971542;28;20236;-76
2022/12/24 14:20:31;;;;;;;7.70;3.47;;;;;;;;;;4967569;28;20309;-76
2022/12/24 14:22:59;;;;;;;8.50;3.07;;;;;;;;;;4962545;28;20212;-76
2022/12/24 14:25:26;;;;;;;6.90;4.17;;;;;;;;;;4962708;28;20237;-77
2022/12/24 14:28:05;;;;;;;6.20;2.77;;;;;;;;;;4947392;28;20588;-75
2022/12/24 14:30:32;;;;;;;4.47;2.50;;;;;;;;;;4953465;28;20697;-75
2022/12/24 14:32:59;;;;;;;4.50;2.70;;;;;;;;;;4970260;28;20656;-77
2022/12/24 14:35:28;;;;;;;6.73;2.67;;;;;;;;;;4971355;28;20200;-74
2022/12/24 14:38:04;;;;;;;6.87;2.67;;;;;;;;;;4963812;28;20251;-76
2022/12/24 14:40:33;;;;;;;7.83;2.90;;;;;;;;;;4970654;28;20326;-76
2022/12/24 14:43:09;;;;;;;4.50;2.90;;;;;;;;;;4971070;28;20213;-77
2022/12/24 14:45:45;;;;;;;9.70;3.03;;;;;;;;;;4956243;28;20244;-76
2022/12/24 14:48:26;;;;;;;7.30;3.77;;;;;;;;;;4977736;28;20268;-76
2022/12/24 14:51:04;;;;;;;7.77;3.10;;;;;;;;;;4966806;28;20243;-77
2022/12/24 14:53:47;;;;;;;9.00;3.40;;;;;;;;;;4969599;28;20213;-78
2022/12/24 14:56:16;;;;;;;8.93;3.77;;;;;;;;;;4940775;28;20216;-76
2022/12/24 14:58:44;;;;;;;14.20;7.30;;;;;;;;;;4916562;28;20208;-79
2022/12/24 15:01:27;;;;;;;5.87;3.83;;;;;;;;;;4933154;28;20235;-78
2022/12/24 15:04:10;;;;;;;14.37;7.97;;;;;;;;;;4951993;28;20273;-75
2022/12/24 15:06:39;;;;;;;11.57;5.10;;;;;;;;;;4948023;28;20208;-77